createdAt,value
2023-02-19T00:01:37.275Z,58.96
2023-02-19T00:04:07.348Z,58.98
2023-02-19T00:06:37.313Z,58.83
2023-02-19T00:09:06.331Z,58.96
2023-02-19T00:11:36.145Z,59.03
2023-02-19T00:14:05.080Z,59.07
2023-02-19T00:16:35.581Z,59.02
2023-02-19T00:19:06.489Z,59.12
2023-02-19T00:21:36.777Z,59.09
2023-02-19T00:24:07.001Z,59.21
2023-02-19T00:26:35.829Z,59.32
2023-02-19T00:29:04.347Z,59.38
2023-02-19T00:31:34.264Z,59.54
2023-02-19T00:34:05.138Z,59.54
2023-02-19T00:36:36.208Z,59.47
2023-02-19T00:39:06.834Z,59.41
2023-02-19T00:41:35.540Z,59.35
2023-02-19T00:44:06.081Z,59.39
2023-02-19T00:46:36.466Z,59.42
2023-02-19T00:49:06.510Z,59.35
2023-02-19T00:51:37.068Z,59.38
2023-02-19T00:54:07.416Z,59.32
2023-02-19T00:56:35.881Z,59.42
2023-02-19T00:59:04.291Z,59.53
2023-02-19T01:01:32.791Z,59.53
2023-02-19T01:04:01.177Z,59.58
2023-02-19T01:06:32.762Z,59.56
2023-02-19T01:09:01.218Z,59.56
2023-02-19T01:11:30.967Z,59.67
2023-02-19T01:14:00.185Z,59.44
2023-02-19T01:16:28.720Z,59.42
2023-02-19T01:18:58.502Z,59.11
2023-02-19T01:21:28.586Z,58.97
2023-02-19T01:23:57.896Z,59.09
2023-02-19T01:26:29.511Z,59.18
2023-02-19T01:28:59.243Z,59.17
2023-02-19T01:31:28.209Z,59.11
2023-02-19T01:33:58.186Z,59.23
2023-02-19T01:36:27.234Z,59.22
2023-02-19T01:38:55.820Z,59.32
2023-02-19T01:41:25.940Z,59.28
2023-02-19T01:44:01.405Z,59.09
2023-02-19T01:46:31.036Z,59.32
2023-02-19T01:49:02.225Z,59.35
2023-02-19T01:51:33.873Z,59.35
2023-02-19T01:54:05.869Z,59.29
2023-02-19T01:56:38.425Z,59.46
2023-02-19T01:59:09.226Z,59.38
2023-02-19T02:01:39.951Z,59.41
2023-02-19T02:04:11.011Z,59.43
2023-02-19T02:06:45.076Z,59.20
2023-02-19T02:09:31.334Z,59.31
2023-02-19T02:11:59.974Z,59.19
2023-02-19T02:14:33.699Z,58.93
2023-02-19T02:17:14.977Z,59.05
2023-02-19T02:20:02.553Z,59.03
2023-02-19T02:22:36.377Z,59.35
2023-02-19T02:25:34.517Z,59.28
2023-02-19T02:28:28.348Z,59.31
2023-02-19T02:31:00.927Z,59.35
2023-02-19T02:33:36.980Z,59.35
2023-02-19T02:36:08.992Z,59.42
2023-02-19T02:38:43.989Z,59.36
2023-02-19T02:41:14.453Z,59.53
2023-02-19T02:43:42.961Z,59.37
2023-02-19T02:46:14.536Z,59.39
2023-02-19T02:48:53.855Z,59.41
2023-02-19T02:51:26.862Z,59.61
2023-02-19T02:54:29.620Z,59.61
2023-02-19T02:57:01.013Z,59.51
2023-02-19T02:59:34.378Z,59.61
2023-02-19T03:02:11.519Z,59.46
2023-02-19T03:05:09.718Z,59.12
2023-02-19T03:07:41.382Z,59.35
2023-02-19T03:10:14.845Z,59.02
2023-02-19T03:13:03.718Z,59.17
2023-02-19T03:15:55.786Z,59.03
2023-02-19T03:18:46.726Z,59.10
2023-02-19T03:21:18.253Z,59.21
2023-02-19T03:24:05.317Z,59.15
2023-02-19T03:26:35.098Z,59.17
2023-02-19T03:29:22.822Z,59.07
2023-02-19T03:31:57.473Z,58.97
2023-02-19T03:34:35.968Z,58.90
2023-02-19T03:37:11.289Z,58.61
2023-02-19T03:39:44.497Z,58.94
2023-02-19T03:42:26.947Z,58.55
2023-02-19T03:45:09.504Z,58.41
2023-02-19T03:47:50.976Z,58.47
2023-02-19T03:50:25.073Z,58.76
2023-02-19T03:53:00.786Z,58.79
2023-02-19T03:55:36.246Z,58.73
2023-02-19T03:58:10.009Z,58.61
2023-02-19T04:00:45.058Z,58.61
2023-02-19T04:03:20.632Z,58.45
2023-02-19T04:05:54.806Z,58.50
2023-02-19T04:08:25.569Z,58.60
2023-02-19T04:11:01.668Z,58.61
2023-02-19T04:13:37.087Z,58.51
2023-02-19T04:16:10.053Z,58.61
2023-02-19T04:18:42.231Z,58.71
2023-02-19T04:21:12.537Z,58.82
2023-02-19T04:23:43.478Z,58.83
2023-02-19T04:26:13.334Z,58.83
2023-02-19T04:28:43.790Z,58.77
2023-02-19T04:31:12.710Z,58.76
2023-02-19T04:33:41.218Z,58.72
2023-02-19T04:36:12.975Z,58.58
2023-02-19T04:38:41.337Z,58.74
2023-02-19T04:41:10.698Z,58.75
2023-02-19T04:43:39.155Z,58.78
2023-02-19T04:46:07.452Z,58.75
2023-02-19T04:48:35.786Z,58.87
2023-02-19T04:51:07.191Z,58.77
2023-02-19T04:53:37.478Z,58.84
2023-02-19T04:56:10.683Z,58.66
2023-02-19T04:58:39.376Z,58.79
2023-02-19T05:01:08.032Z,58.80
2023-02-19T05:03:37.419Z,58.73
2023-02-19T05:06:06.564Z,58.77
2023-02-19T05:08:36.598Z,59.12
2023-02-19T05:11:07.231Z,58.97
2023-02-19T05:13:35.684Z,58.95
2023-02-19T05:16:08.108Z,58.86
2023-02-19T05:18:36.566Z,58.93
2023-02-19T05:21:05.193Z,58.99
2023-02-19T05:23:33.511Z,58.96
2023-02-19T05:26:06.543Z,58.75
2023-02-19T05:28:35.300Z,58.73
2023-02-19T05:31:06.841Z,59.22
2023-02-19T05:33:35.555Z,60.02
2023-02-19T05:36:07.568Z,58.88
2023-02-19T05:38:36.357Z,58.74
2023-02-19T05:41:14.965Z,58.32
2023-02-19T05:43:45.114Z,58.63
2023-02-19T05:46:14.688Z,58.60
2023-02-19T05:48:43.216Z,58.61
2023-02-19T05:51:13.220Z,58.67
2023-02-19T05:53:42.740Z,58.65
2023-02-19T05:56:27.869Z,58.35
2023-02-19T05:58:56.876Z,58.70
2023-02-19T06:01:26.798Z,58.67
2023-02-19T06:03:57.340Z,58.64
2023-02-19T06:06:27.175Z,58.60
2023-02-19T06:08:55.878Z,58.66
2023-02-19T06:11:26.241Z,58.64
2023-02-19T06:13:54.573Z,58.62
2023-02-19T06:16:23.062Z,58.59
2023-02-19T06:18:51.677Z,58.51
2023-02-19T06:21:20.650Z,58.38
2023-02-19T06:23:48.902Z,58.38
2023-02-19T06:26:19.380Z,58.38
2023-02-19T06:28:50.657Z,58.23
2023-02-19T06:31:19.682Z,58.14
2023-02-19T06:33:48.351Z,58.13
2023-02-19T06:36:18.234Z,58.05
2023-02-19T06:38:46.811Z,58.05
2023-02-19T06:41:15.670Z,58.00
2023-02-19T06:43:44.114Z,58.08
2023-02-19T06:46:14.667Z,58.10
2023-02-19T06:48:44.644Z,58.20
2023-02-19T06:51:14.480Z,58.21
2023-02-19T06:53:42.922Z,58.25
2023-02-19T06:56:25.196Z,57.89
2023-02-19T06:58:53.821Z,58.21
2023-02-19T07:01:23.875Z,58.16
2023-02-19T07:03:52.676Z,58.23
2023-02-19T07:06:21.754Z,58.29
2023-02-19T07:08:50.538Z,58.28
2023-02-19T07:11:19.530Z,58.30
2023-02-19T07:13:48.269Z,58.17
2023-02-19T07:16:17.993Z,58.22
2023-02-19T07:18:47.765Z,58.22
2023-02-19T07:21:17.447Z,58.28
2023-02-19T07:23:46.754Z,58.27
2023-02-19T07:26:17.143Z,58.23
2023-02-19T07:28:46.693Z,58.21
2023-02-19T07:31:15.970Z,58.16
2023-02-19T07:33:44.909Z,58.13
2023-02-19T07:36:16.882Z,58.08
2023-02-19T07:38:45.391Z,58.25
2023-02-19T07:41:13.994Z,58.46
2023-02-19T07:43:42.909Z,58.35
2023-02-19T07:46:13.276Z,58.52
2023-02-19T07:48:43.126Z,58.52
2023-02-19T07:51:16.532Z,58.94
2023-02-19T07:53:44.851Z,59.30
2023-02-19T07:56:13.856Z,58.84
2023-02-19T07:58:42.236Z,58.16
2023-02-19T08:01:12.443Z,58.04
2023-02-19T08:03:40.258Z,57.08
2023-02-19T08:06:09.143Z,56.68
2023-02-19T08:08:38.890Z,56.92
2023-02-19T08:11:25.587Z,57.07
2023-02-19T08:13:54.457Z,57.16
2023-02-19T08:16:40.692Z,56.75
2023-02-19T08:19:11.119Z,55.84
2023-02-19T08:21:39.410Z,55.58
2023-02-19T08:24:09.300Z,55.11
2023-02-19T08:26:38.474Z,54.85
2023-02-19T08:29:07.448Z,55.56
2023-02-19T08:31:36.632Z,57.29
2023-02-19T08:34:05.095Z,58.88
2023-02-19T08:36:33.532Z,59.60
2023-02-19T08:39:01.749Z,59.15
2023-02-19T08:41:31.438Z,58.45
2023-02-19T08:43:59.716Z,56.44
2023-02-19T08:46:27.974Z,54.51
2023-02-19T08:48:56.286Z,55.19
2023-02-19T08:51:24.593Z,52.82
2023-02-19T08:53:52.824Z,51.57
2023-02-19T08:56:21.107Z,51.04
2023-02-19T08:58:50.772Z,49.79
2023-02-19T09:01:19.475Z,47.98
2023-02-19T09:03:47.896Z,47.98
2023-02-19T09:06:18.531Z,47.58
2023-02-19T09:08:47.341Z,47.55
2023-02-19T09:11:16.214Z,45.80
2023-02-19T09:13:45.197Z,43.99
2023-02-19T09:16:14.884Z,44.93
2023-02-19T09:18:43.251Z,43.91
2023-02-19T09:21:11.854Z,42.85
2023-02-19T09:23:40.384Z,43.14
2023-02-19T09:26:10.180Z,43.24
2023-02-19T09:28:42.021Z,44.00
2023-02-19T09:31:12.565Z,42.90
2023-02-19T09:33:45.819Z,41.31
2023-02-19T09:36:15.796Z,39.56
2023-02-19T09:38:44.139Z,40.30
2023-02-19T09:41:19.161Z,39.45
2023-02-19T09:43:47.853Z,40.24
2023-02-19T09:46:26.102Z,38.43
2023-02-19T09:49:00.067Z,38.46
2023-02-19T09:51:29.793Z,36.53
2023-02-19T09:53:59.152Z,36.47
2023-02-19T09:56:28.533Z,37.24
2023-02-19T09:58:59.461Z,38.84
2023-02-19T10:01:32.284Z,37.83
2023-02-19T10:04:02.142Z,35.43
2023-02-19T10:06:30.894Z,34.38
2023-02-19T10:09:14.798Z,35.45
2023-02-19T10:11:43.405Z,38.04
2023-02-19T10:14:17.207Z,39.23
2023-02-19T10:16:47.204Z,38.62
2023-02-19T10:19:17.725Z,38.46
2023-02-19T10:21:46.208Z,37.98
2023-02-19T10:24:21.724Z,36.72
2023-02-19T10:26:51.436Z,34.32
2023-02-19T10:29:21.722Z,32.67
2023-02-19T10:31:50.205Z,33.92
2023-02-19T10:34:22.314Z,35.21
2023-02-19T10:36:53.508Z,35.02
2023-02-19T10:39:42.258Z,33.99
2023-02-19T10:42:19.294Z,34.59
2023-02-19T10:44:50.599Z,35.88
2023-02-19T10:47:21.626Z,37.74
2023-02-19T10:49:52.129Z,38.55
2023-02-19T10:52:25.150Z,40.49
2023-02-19T10:54:56.504Z,39.04
2023-02-19T10:57:30.308Z,35.22
2023-02-19T11:00:02.421Z,33.74
2023-02-19T11:02:32.093Z,33.41
2023-02-19T11:05:16.352Z,31.15
2023-02-19T11:07:50.183Z,31.90
2023-02-19T11:10:26.812Z,31.00
2023-02-19T11:12:57.493Z,30.71
2023-02-19T11:15:30.772Z,30.52
2023-02-19T11:18:03.832Z,27.82
2023-02-19T11:20:33.832Z,27.35
2023-02-19T11:23:06.708Z,24.69
2023-02-19T11:25:35.360Z,25.31
2023-02-19T11:28:07.450Z,27.39
2023-02-19T11:30:44.511Z,29.00
2023-02-19T11:33:36.752Z,30.48
2023-02-19T11:36:30.068Z,31.52
2023-02-19T11:39:00.353Z,33.03
2023-02-19T11:41:56.748Z,33.91
2023-02-19T11:44:32.976Z,35.49
2023-02-19T11:47:31.669Z,36.10
2023-02-19T11:50:07.617Z,36.31
2023-02-19T11:52:48.496Z,34.89
2023-02-19T11:55:38.990Z,32.03
2023-02-19T11:58:38.333Z,31.73
2023-02-19T12:01:13.711Z,32.17
2023-02-19T12:04:17.769Z,33.86
2023-02-19T12:06:54.668Z,34.53
2023-02-19T12:09:39.352Z,35.42
2023-02-19T12:12:24.444Z,36.18
2023-02-19T12:15:25.032Z,36.82
2023-02-19T12:18:10.998Z,37.57
2023-02-19T12:20:50.196Z,38.18
2023-02-19T12:27:44.479Z,38.64
2023-02-19T12:30:39.507Z,39.04
2023-02-19T12:33:32.431Z,39.16
2023-02-19T12:36:08.311Z,38.77
2023-02-19T12:38:44.884Z,39.20
2023-02-19T12:41:23.348Z,39.61
2023-02-19T12:44:00.062Z,40.22
2023-02-19T12:46:33.262Z,40.86
2023-02-19T12:49:07.864Z,41.55
2023-02-19T12:51:43.225Z,41.20
2023-02-19T12:54:16.053Z,40.84
2023-02-19T12:56:49.437Z,40.89
2023-02-19T12:59:25.539Z,40.51
2023-02-19T13:01:59.058Z,41.08
2023-02-19T13:04:34.043Z,41.65
2023-02-19T13:07:07.216Z,41.29
2023-02-19T13:09:39.365Z,41.07
2023-02-19T13:12:13.737Z,41.05
2023-02-19T13:14:45.839Z,40.87
2023-02-19T13:17:23.844Z,39.63
2023-02-19T13:19:56.571Z,39.23
2023-02-19T13:22:49.988Z,36.93
2023-02-19T13:25:20.174Z,36.50
2023-02-19T13:28:08.929Z,35.79
2023-02-19T13:31:17.400Z,36.09
2023-02-19T13:33:55.353Z,36.78
2023-02-19T13:36:27.272Z,36.41
2023-02-19T13:38:58.245Z,36.83
2023-02-19T13:41:30.057Z,37.28
2023-02-19T13:44:01.714Z,36.91
2023-02-19T13:46:40.262Z,36.77
2023-02-19T13:49:43.177Z,36.05
2023-02-19T13:52:39.441Z,35.81
2023-02-19T13:55:42.334Z,35.28
2023-02-19T13:58:51.500Z,35.56
2023-02-19T14:01:19.820Z,35.37
2023-02-19T14:03:54.933Z,34.03
2023-02-19T14:06:23.031Z,35.07
2023-02-19T14:08:57.081Z,34.70
2023-02-19T14:12:03.880Z,33.94
2023-02-19T14:14:36.889Z,33.73
2023-02-19T14:17:29.564Z,33.65
2023-02-19T14:20:01.142Z,33.22
2023-02-19T14:23:01.592Z,33.34
2023-02-19T14:25:39.349Z,33.39
2023-02-19T14:28:18.252Z,33.86
2023-02-19T14:30:51.777Z,35.99
2023-02-19T14:33:23.191Z,35.74
2023-02-19T14:35:55.924Z,35.06
2023-02-19T14:38:28.340Z,35.21
2023-02-19T14:40:57.380Z,34.08
2023-02-19T14:43:26.851Z,33.70
2023-02-19T14:45:58.870Z,34.82
2023-02-19T14:48:31.627Z,35.67
2023-02-19T14:51:09.082Z,35.57
2023-02-19T14:53:40.768Z,35.68
2023-02-19T14:56:20.455Z,35.71
2023-02-19T14:59:07.468Z,36.18
2023-02-19T15:01:35.602Z,36.35
2023-02-19T15:04:03.693Z,36.40
2023-02-19T15:06:35.266Z,36.83
2023-02-19T15:09:07.041Z,36.81
2023-02-19T15:11:37.002Z,37.50
2023-02-19T15:14:08.054Z,37.99
2023-02-19T15:16:37.487Z,38.14
2023-02-19T15:19:09.064Z,38.50
2023-02-19T15:21:41.129Z,39.07
2023-02-19T15:24:09.363Z,39.12
2023-02-19T15:26:40.508Z,39.48
2023-02-19T15:29:12.286Z,39.50
2023-02-19T15:31:46.810Z,39.73
2023-02-19T15:34:20.437Z,39.96
2023-02-19T15:36:52.241Z,40.39
2023-02-19T15:39:25.188Z,40.67
2023-02-19T15:42:00.071Z,40.98
2023-02-19T15:44:39.289Z,41.29
2023-02-19T15:47:15.554Z,41.71
2023-02-19T15:49:50.064Z,42.19
2023-02-19T15:52:26.187Z,42.40
2023-02-19T15:54:59.557Z,42.67
2023-02-19T15:57:33.158Z,42.95
2023-02-19T16:00:08.273Z,43.17
2023-02-19T16:02:44.550Z,43.32
2023-02-19T16:05:16.017Z,43.59
2023-02-19T16:07:45.433Z,43.58
2023-02-19T16:10:22.713Z,43.53
2023-02-19T16:12:58.201Z,43.68
2023-02-19T16:15:26.616Z,44.13
2023-02-19T16:17:56.522Z,44.70
2023-02-19T16:20:28.513Z,44.81
2023-02-19T16:23:03.746Z,44.82
2023-02-19T16:25:37.548Z,45.05
2023-02-19T16:28:13.104Z,45.05
2023-02-19T16:30:41.740Z,45.31
2023-02-19T16:33:36.248Z,45.25
2023-02-19T16:36:26.321Z,45.48
2023-02-19T16:39:24.241Z,45.67
2023-02-19T16:42:15.159Z,46.47
2023-02-19T16:44:48.035Z,46.47
2023-02-19T16:47:38.300Z,46.67
2023-02-19T16:50:13.750Z,46.68
2023-02-19T16:52:52.355Z,46.86
2023-02-19T16:55:22.107Z,47.02
2023-02-19T16:57:50.595Z,47.60
2023-02-19T17:00:20.190Z,48.05
2023-02-19T17:02:49.298Z,48.25
2023-02-19T17:05:18.232Z,48.23
2023-02-19T17:07:46.325Z,48.38
2023-02-19T17:10:17.291Z,48.63
2023-02-19T17:12:47.115Z,48.50
2023-02-19T17:15:15.490Z,48.79
2023-02-19T17:17:43.614Z,48.96
2023-02-19T17:20:22.874Z,48.86
2023-02-19T17:22:51.097Z,49.21
2023-02-19T17:25:19.170Z,49.13
2023-02-19T17:27:48.851Z,49.35
2023-02-19T17:30:21.019Z,49.30
2023-02-19T17:32:49.059Z,49.57
2023-02-19T17:35:17.461Z,49.79
2023-02-19T17:37:45.527Z,49.71
2023-02-19T17:40:32.190Z,49.46
2023-02-19T17:43:03.018Z,49.74
2023-02-19T17:45:31.254Z,49.73
2023-02-19T17:47:59.736Z,49.66
2023-02-19T17:50:29.557Z,49.66
2023-02-19T17:52:58.195Z,49.90
2023-02-19T17:55:26.614Z,49.98
2023-02-19T17:57:54.820Z,50.14
2023-02-19T18:00:25.968Z,50.30
2023-02-19T18:02:54.529Z,50.72
2023-02-19T18:05:23.278Z,50.72
2023-02-19T18:07:51.792Z,50.97
2023-02-19T18:10:21.432Z,50.99
2023-02-19T18:15:42.503Z,51.46
2023-02-19T18:18:10.793Z,51.91
2023-02-19T18:20:38.911Z,51.82
2023-02-19T18:23:07.121Z,51.84
2023-02-19T18:25:35.149Z,52.04
2023-02-19T18:28:03.218Z,51.91
2023-02-19T18:30:31.335Z,51.91
2023-02-19T18:33:00.817Z,51.96
2023-02-19T18:35:28.863Z,51.91
2023-02-19T18:37:56.947Z,52.27
2023-02-19T18:40:26.459Z,52.34
2023-02-19T18:42:54.971Z,52.56
2023-02-19T18:45:23.269Z,52.59
2023-02-19T18:47:51.794Z,52.70
2023-02-19T18:50:21.887Z,52.77
2023-02-19T18:52:49.974Z,52.85
2023-02-19T18:55:18.011Z,52.88
2023-02-19T18:57:46.740Z,52.78
2023-02-19T19:00:19.801Z,52.83
2023-02-19T19:02:50.063Z,52.97
2023-02-19T19:05:23.160Z,52.90
2023-02-19T19:07:52.433Z,52.73
2023-02-19T19:10:20.784Z,52.88
2023-02-19T19:12:49.151Z,52.91
2023-02-19T19:15:18.426Z,53.01
2023-02-19T19:17:46.758Z,53.07
2023-02-19T19:20:15.608Z,53.14
2023-02-19T19:22:45.028Z,53.14
2023-02-19T19:25:13.493Z,53.20
2023-02-19T19:27:41.540Z,53.28
2023-02-19T19:30:10.215Z,53.00
2023-02-19T19:32:38.320Z,53.16
2023-02-19T19:35:06.630Z,53.14
2023-02-19T19:37:34.849Z,53.29
2023-02-19T19:40:05.097Z,53.07
2023-02-19T19:42:33.148Z,53.14
2023-02-19T19:45:01.258Z,53.29
2023-02-19T19:47:29.514Z,53.21
2023-02-19T19:49:57.674Z,53.24
2023-02-19T19:52:25.731Z,53.22
2023-02-19T19:54:54.172Z,53.46
2023-02-19T19:57:23.732Z,53.66
2023-02-19T19:59:52.391Z,53.33
2023-02-19T20:02:20.983Z,53.27
2023-02-19T20:04:49.056Z,53.27
2023-02-19T20:07:17.161Z,53.48
2023-02-19T20:09:48.923Z,53.49
2023-02-19T20:12:17.128Z,53.62
2023-02-19T20:14:47.807Z,53.53
2023-02-19T20:17:16.316Z,53.83
2023-02-19T20:19:44.457Z,53.80
2023-02-19T20:22:13.259Z,53.47
2023-02-19T20:24:41.320Z,53.72
2023-02-19T20:27:09.371Z,53.90
2023-02-19T20:29:37.439Z,54.20
2023-02-19T20:32:06.987Z,54.14
2023-02-19T20:34:35.097Z,54.05
2023-02-19T20:37:03.099Z,54.46
2023-02-19T20:39:31.922Z,54.74
2023-02-19T20:42:00.776Z,54.50
2023-02-19T20:44:29.820Z,54.74
2023-02-19T20:46:59.596Z,54.52
2023-02-19T20:49:31.568Z,54.62
2023-02-19T20:52:01.658Z,54.62
2023-02-19T20:54:31.557Z,54.58
2023-02-19T20:57:02.194Z,54.44
2023-02-19T20:59:34.989Z,54.69
2023-02-19T21:02:04.110Z,54.58
2023-02-19T21:04:33.628Z,54.71
2023-02-19T21:07:01.727Z,54.49
2023-02-19T21:09:29.770Z,54.76
2023-02-19T21:11:58.490Z,55.28
2023-02-19T21:14:27.263Z,55.23
2023-02-19T21:16:55.356Z,54.69
2023-02-19T21:19:23.481Z,54.60
2023-02-19T21:21:52.896Z,54.94
2023-02-19T21:24:20.934Z,54.75
2023-02-19T21:26:48.966Z,54.68
2023-02-19T21:29:19.719Z,54.78
2023-02-19T21:31:49.967Z,54.87
2023-02-19T21:34:21.456Z,54.75
2023-02-19T21:36:49.744Z,55.06
2023-02-19T21:39:21.272Z,54.57
2023-02-19T21:41:49.726Z,54.72
2023-02-19T21:44:18.120Z,54.42
2023-02-19T21:46:46.206Z,54.19
2023-02-19T21:49:14.396Z,54.30
2023-02-19T21:51:44.319Z,53.85
2023-02-19T21:54:16.208Z,54.06
2023-02-19T21:56:46.084Z,54.30
2023-02-19T21:59:14.396Z,53.99
2023-02-19T22:01:43.430Z,53.84
2023-02-19T22:04:14.336Z,53.88
2023-02-19T22:06:42.691Z,53.90
2023-02-19T22:09:12.050Z,53.72
2023-02-19T22:11:40.074Z,53.94
2023-02-19T22:14:09.502Z,53.76
2023-02-19T22:16:37.635Z,54.23
2023-02-19T22:19:05.896Z,53.94
2023-02-19T22:21:34.251Z,54.23
2023-02-19T22:24:03.874Z,54.19
2023-02-19T22:26:34.005Z,53.97
2023-02-19T22:29:05.926Z,54.11
2023-02-19T22:31:36.660Z,54.13
2023-02-19T22:34:05.648Z,54.42
2023-02-19T22:36:36.953Z,54.41
2023-02-19T22:39:06.508Z,54.19
2023-02-19T22:41:34.986Z,54.96
2023-02-19T22:44:03.257Z,55.07
2023-02-19T22:46:32.108Z,55.28
2023-02-19T22:49:04.471Z,54.96
2023-02-19T22:51:33.104Z,54.80
2023-02-19T22:54:01.695Z,54.87
2023-02-19T22:56:30.446Z,54.83
2023-02-19T22:58:59.096Z,54.73
2023-02-19T23:01:27.339Z,55.04
2023-02-19T23:03:56.877Z,55.10
2023-02-19T23:06:28.603Z,55.13
2023-02-19T23:08:58.897Z,55.52
2023-02-19T23:11:28.665Z,55.14
2023-02-19T23:13:56.863Z,55.29
2023-02-19T23:16:25.386Z,55.67
2023-02-19T23:18:53.631Z,55.42
2023-02-19T23:21:23.443Z,55.10
2023-02-19T23:23:52.853Z,55.56
2023-02-19T23:26:22.820Z,55.69
2023-02-19T23:28:51.345Z,55.74
2023-02-19T23:31:19.949Z,55.26
2023-02-19T23:33:48.315Z,55.18
2023-02-19T23:36:16.844Z,55.36
2023-02-19T23:38:46.280Z,55.39
2023-02-19T23:41:17.390Z,55.19
2023-02-19T23:43:46.145Z,55.13
2023-02-19T23:46:18.343Z,54.82
2023-02-19T23:48:47.037Z,54.97
2023-02-19T23:51:15.397Z,55.00
2023-02-19T23:53:43.418Z,54.94
2023-02-19T23:56:11.826Z,55.05
2023-02-19T23:58:41.417Z,55.16
